CheckWX is a tool to help pilots better visualize weather data.  It is not intended as a substitute for an official pre-flight weather briefing.

06:10:36 UTC

EDLN METAR
Mönchengladbach Airport
Mönchengladbach, Germany
Current

21 mins ago

EDLN 230550Z 05005KT 020V080 CAVOK 10/03 Q1001
Observed
Apr-23 @ 05:50 UTC
Wind
  • 050° at 5 KTS
Visibility
10,000+ meters
Flight Rules
VFR
Cloud Levels
  • Clear skies
Temperature
10°C / 50°F
Dewpoint
C / 37°F
Humidity
62%
Altimeter
29.56" Hg
Pressure
1000.92 hPa
Previous

51 mins ago

EDLN 230520Z AUTO 06005KT 030V100 9999 // NCD 10/03 Q1001
Observed
Apr-23 @ 05:20 UTC
Wind
  • 060° at 5 KTS
Visibility
10,000+ meters
Flight Rules
VFR
Cloud Levels
  • Clear skies
Temperature
10°C / 50°F
Dewpoint
C / 37°F
Humidity
62%
Altimeter
29.56" Hg
Pressure
1000.92 hPa
Previous

1 hour ago

EDLN 230450Z AUTO 05006KT 9999 // NCD 09/03 Q1001
Observed
Apr-23 @ 04:50 UTC
Wind
  • 050° at 6 KTS
Visibility
10,000+ meters
Flight Rules
VFR
Cloud Levels
  • Clear skies
Temperature
C / 48°F
Dewpoint
C / 37°F
Humidity
66%
Altimeter
29.56" Hg
Pressure
1000.92 hPa